sensor_id;sensor_type;location;lat;lon;timestamp;P1;durP1;ratioP1;P2;durP2;ratioP2
41661;SDS011;27351;45.992;12.666;2023-11-21T00:01:15;13.23;;;7.77;;
41661;SDS011;27351;45.992;12.666;2023-11-21T00:03:42;14.43;;;8.43;;
41661;SDS011;27351;45.992;12.666;2023-11-21T00:06:07;13.87;;;7.30;;
41661;SDS011;27351;45.992;12.666;2023-11-21T00:08:36;12.80;;;7.38;;
41661;SDS011;27351;45.992;12.666;2023-11-21T00:11:01;13.77;;;7.70;;
41661;SDS011;27351;45.992;12.666;2023-11-21T00:13:27;14.10;;;6.90;;
41661;SDS011;27351;45.992;12.666;2023-11-21T00:15:53;13.30;;;7.30;;
41661;SDS011;27351;45.992;12.666;2023-11-21T00:18:19;14.05;;;7.07;;
41661;SDS011;27351;45.992;12.666;2023-11-21T00:20:44;13.98;;;7.68;;
41661;SDS011;27351;45.992;12.666;2023-11-21T00:23:10;13.55;;;7.93;;
41661;SDS011;27351;45.992;12.666;2023-11-21T00:25:35;13.63;;;7.22;;
41661;SDS011;27351;45.992;12.666;2023-11-21T00:28:01;12.93;;;7.13;;
41661;SDS011;27351;45.992;12.666;2023-11-21T00:30:27;12.73;;;6.63;;
41661;SDS011;27351;45.992;12.666;2023-11-21T00:32:54;14.00;;;6.82;;
41661;SDS011;27351;45.992;12.666;2023-11-21T00:35:19;11.55;;;6.43;;
41661;SDS011;27351;45.992;12.666;2023-11-21T00:37:45;13.63;;;6.68;;
41661;SDS011;27351;45.992;12.666;2023-11-21T00:40:11;11.65;;;6.68;;
41661;SDS011;27351;45.992;12.666;2023-11-21T00:42:37;13.40;;;6.78;;
41661;SDS011;27351;45.992;12.666;2023-11-21T00:45:02;12.33;;;6.70;;
41661;SDS011;27351;45.992;12.666;2023-11-21T00:47:28;12.77;;;6.60;;
41661;SDS011;27351;45.992;12.666;2023-11-21T00:49:54;11.90;;;6.50;;
41661;SDS011;27351;45.992;12.666;2023-11-21T00:52:20;12.97;;;6.43;;
41661;SDS011;27351;45.992;12.666;2023-11-21T00:54:45;12.97;;;6.43;;
41661;SDS011;27351;45.992;12.666;2023-11-21T00:57:11;12.13;;;6.82;;
41661;SDS011;27351;45.992;12.666;2023-11-21T00:59:37;11.77;;;6.30;;
41661;SDS011;27351;45.992;12.666;2023-11-21T01:02:02;12.73;;;6.77;;
41661;SDS011;27351;45.992;12.666;2023-11-21T01:04:30;13.13;;;6.93;;
41661;SDS011;27351;45.992;12.666;2023-11-21T01:06:57;12.48;;;6.60;;
41661;SDS011;27351;45.992;12.666;2023-11-21T01:09:23;12.47;;;6.93;;
41661;SDS011;27351;45.992;12.666;2023-11-21T01:11:49;11.77;;;6.40;;
41661;SDS011;27351;45.992;12.666;2023-11-21T01:14:14;15.13;;;6.95;;
41661;SDS011;27351;45.992;12.666;2023-11-21T01:16:40;12.53;;;6.63;;
41661;SDS011;27351;45.992;12.666;2023-11-21T01:19:05;12.90;;;7.00;;
41661;SDS011;27351;45.992;12.666;2023-11-21T01:21:31;14.57;;;7.00;;
41661;SDS011;27351;45.992;12.666;2023-11-21T01:23:57;12.45;;;7.05;;
41661;SDS011;27351;45.992;12.666;2023-11-21T01:26:22;12.88;;;6.78;;
41661;SDS011;27351;45.992;12.666;2023-11-21T01:28:48;12.30;;;6.97;;
41661;SDS011;27351;45.992;12.666;2023-11-21T01:31:14;13.82;;;7.30;;
41661;SDS011;27351;45.992;12.666;2023-11-21T01:33:40;12.80;;;7.70;;
41661;SDS011;27351;45.992;12.666;2023-11-21T01:36:06;13.32;;;7.00;;
41661;SDS011;27351;45.992;12.666;2023-11-21T01:38:32;12.93;;;6.93;;
41661;SDS011;27351;45.992;12.666;2023-11-21T01:40:59;13.68;;;7.32;;
41661;SDS011;27351;45.992;12.666;2023-11-21T01:43:26;12.23;;;6.80;;
41661;SDS011;27351;45.992;12.666;2023-11-21T01:45:53;12.32;;;6.63;;
41661;SDS011;27351;45.992;12.666;2023-11-21T01:48:19;12.52;;;6.05;;
41661;SDS011;27351;45.992;12.666;2023-11-21T01:50:46;11.98;;;6.50;;
41661;SDS011;27351;45.992;12.666;2023-11-21T01:53:14;12.02;;;6.47;;
41661;SDS011;27351;45.992;12.666;2023-11-21T01:55:40;14.43;;;7.55;;
41661;SDS011;27351;45.992;12.666;2023-11-21T01:58:07;12.60;;;7.28;;
41661;SDS011;27351;45.992;12.666;2023-11-21T02:00:32;13.77;;;8.07;;
41661;SDS011;27351;45.992;12.666;2023-11-21T02:02:58;14.48;;;7.38;;
41661;SDS011;27351;45.992;12.666;2023-11-21T02:05:24;14.50;;;7.25;;
41661;SDS011;27351;45.992;12.666;2023-11-21T02:07:51;13.10;;;7.35;;
41661;SDS011;27351;45.992;12.666;2023-11-21T02:10:18;13.20;;;6.93;;
41661;SDS011;27351;45.992;12.666;2023-11-21T02:12:50;13.68;;;7.10;;
41661;SDS011;27351;45.992;12.666;2023-11-21T02:15:16;14.73;;;7.85;;
41661;SDS011;27351;45.992;12.666;2023-11-21T02:17:49;14.75;;;7.80;;
41661;SDS011;27351;45.992;12.666;2023-11-21T02:20:22;13.18;;;7.47;;
41661;SDS011;27351;45.992;12.666;2023-11-21T02:25:15;13.50;;;7.37;;
41661;SDS011;27351;45.992;12.666;2023-11-21T02:27:40;14.40;;;8.27;;
41661;SDS011;27351;45.992;12.666;2023-11-21T02:30:07;14.40;;;7.80;;
41661;SDS011;27351;45.992;12.666;2023-11-21T02:32:33;16.98;;;8.48;;
41661;SDS011;27351;45.992;12.666;2023-11-21T02:34:59;16.03;;;8.17;;
41661;SDS011;27351;45.992;12.666;2023-11-21T02:37:28;13.88;;;7.72;;
41661;SDS011;27351;45.992;12.666;2023-11-21T02:39:54;15.80;;;8.93;;
41661;SDS011;27351;45.992;12.666;2023-11-21T02:42:19;15.23;;;8.30;;
41661;SDS011;27351;45.992;12.666;2023-11-21T02:44:45;15.10;;;8.00;;
41661;SDS011;27351;45.992;12.666;2023-11-21T02:47:10;14.67;;;8.30;;
41661;SDS011;27351;45.992;12.666;2023-11-21T02:49:36;15.55;;;8.32;;
41661;SDS011;27351;45.992;12.666;2023-11-21T02:52:02;15.68;;;8.43;;
41661;SDS011;27351;45.992;12.666;2023-11-21T02:54:28;16.00;;;9.05;;
41661;SDS011;27351;45.992;12.666;2023-11-21T02:56:54;14.88;;;8.35;;
41661;SDS011;27351;45.992;12.666;2023-11-21T02:59:19;14.73;;;7.70;;
41661;SDS011;27351;45.992;12.666;2023-11-21T03:01:45;13.53;;;7.33;;
41661;SDS011;27351;45.992;12.666;2023-11-21T03:04:11;15.10;;;8.18;;
41661;SDS011;27351;45.992;12.666;2023-11-21T03:06:41;14.48;;;8.07;;
41661;SDS011;27351;45.992;12.666;2023-11-21T03:09:06;15.68;;;8.27;;
41661;SDS011;27351;45.992;12.666;2023-11-21T03:11:33;14.35;;;7.43;;
41661;SDS011;27351;45.992;12.666;2023-11-21T03:13:58;14.23;;;7.22;;
41661;SDS011;27351;45.992;12.666;2023-11-21T03:16:24;12.97;;;7.33;;
41661;SDS011;27351;45.992;12.666;2023-11-21T03:18:51;14.90;;;7.40;;
41661;SDS011;27351;45.992;12.666;2023-11-21T03:21:17;13.13;;;6.35;;
41661;SDS011;27351;45.992;12.666;2023-11-21T03:23:43;14.03;;;7.87;;
41661;SDS011;27351;45.992;12.666;2023-11-21T03:26:11;12.30;;;6.53;;
41661;SDS011;27351;45.992;12.666;2023-11-21T03:28:38;12.20;;;6.57;;
41661;SDS011;27351;45.992;12.666;2023-11-21T03:31:03;11.23;;;6.27;;
41661;SDS011;27351;45.992;12.666;2023-11-21T03:33:29;12.07;;;7.50;;
41661;SDS011;27351;45.992;12.666;2023-11-21T03:35:54;11.83;;;6.87;;
41661;SDS011;27351;45.992;12.666;2023-11-21T03:38:20;12.73;;;6.63;;
41661;SDS011;27351;45.992;12.666;2023-11-21T03:40:46;12.45;;;7.25;;
41661;SDS011;27351;45.992;12.666;2023-11-21T03:43:13;12.52;;;6.85;;
41661;SDS011;27351;45.992;12.666;2023-11-21T03:45:38;13.88;;;6.72;;
41661;SDS011;27351;45.992;12.666;2023-11-21T03:48:06;14.57;;;7.00;;
41661;SDS011;27351;45.992;12.666;2023-11-21T03:50:32;13.45;;;7.68;;
41661;SDS011;27351;45.992;12.666;2023-11-21T03:52:58;12.23;;;7.05;;
41661;SDS011;27351;45.992;12.666;2023-11-21T03:55:23;13.88;;;7.40;;
41661;SDS011;27351;45.992;12.666;2023-11-21T03:57:50;15.73;;;6.87;;
41661;SDS011;27351;45.992;12.666;2023-11-21T04:00:18;13.25;;;6.63;;
41661;SDS011;27351;45.992;12.666;2023-11-21T04:02:45;14.23;;;7.88;;
41661;SDS011;27351;45.992;12.666;2023-11-21T04:05:11;12.83;;;6.60;;
41661;SDS011;27351;45.992;12.666;2023-11-21T04:07:37;12.80;;;7.10;;
41661;SDS011;27351;45.992;12.666;2023-11-21T04:10:04;15.13;;;7.45;;
41661;SDS011;27351;45.992;12.666;2023-11-21T04:12:32;14.20;;;7.90;;
41661;SDS011;27351;45.992;12.666;2023-11-21T04:14:58;15.30;;;7.70;;
41661;SDS011;27351;45.992;12.666;2023-11-21T04:17:23;13.20;;;7.03;;
41661;SDS011;27351;45.992;12.666;2023-11-21T04:19:49;12.40;;;7.07;;
41661;SDS011;27351;45.992;12.666;2023-11-21T04:22:14;14.17;;;7.33;;
41661;SDS011;27351;45.992;12.666;2023-11-21T04:24:40;12.67;;;6.80;;
41661;SDS011;27351;45.992;12.666;2023-11-21T04:27:06;12.77;;;7.07;;
41661;SDS011;27351;45.992;12.666;2023-11-21T04:29:31;13.32;;;7.13;;
41661;SDS011;27351;45.992;12.666;2023-11-21T04:31:56;12.20;;;6.68;;
41661;SDS011;27351;45.992;12.666;2023-11-21T04:34:22;14.73;;;7.50;;
41661;SDS011;27351;45.992;12.666;2023-11-21T04:36:49;12.93;;;6.43;;
41661;SDS011;27351;45.992;12.666;2023-11-21T04:39:15;12.80;;;6.70;;
41661;SDS011;27351;45.992;12.666;2023-11-21T04:41:40;11.90;;;6.75;;
41661;SDS011;27351;45.992;12.666;2023-11-21T04:44:06;13.50;;;6.53;;
41661;SDS011;27351;45.992;12.666;2023-11-21T04:46:32;10.97;;;6.13;;
41661;SDS011;27351;45.992;12.666;2023-11-21T04:48:57;11.43;;;5.97;;
41661;SDS011;27351;45.992;12.666;2023-11-21T04:51:23;12.33;;;6.23;;
41661;SDS011;27351;45.992;12.666;2023-11-21T04:53:49;12.80;;;6.73;;
41661;SDS011;27351;45.992;12.666;2023-11-21T04:56:14;12.40;;;6.20;;
41661;SDS011;27351;45.992;12.666;2023-11-21T04:58:41;12.43;;;6.68;;
41661;SDS011;27351;45.992;12.666;2023-11-21T05:01:07;12.43;;;6.00;;
41661;SDS011;27351;45.992;12.666;2023-11-21T05:03:32;10.17;;;5.87;;
41661;SDS011;27351;45.992;12.666;2023-11-21T05:05:59;11.10;;;5.73;;
41661;SDS011;27351;45.992;12.666;2023-11-21T05:08:25;11.45;;;6.70;;
41661;SDS011;27351;45.992;12.666;2023-11-21T05:10:52;12.35;;;6.90;;
41661;SDS011;27351;45.992;12.666;2023-11-21T05:13:17;12.07;;;6.03;;
41661;SDS011;27351;45.992;12.666;2023-11-21T05:15:44;11.75;;;6.50;;
41661;SDS011;27351;45.992;12.666;2023-11-21T05:18:09;14.95;;;7.13;;
41661;SDS011;27351;45.992;12.666;2023-11-21T05:20:35;11.83;;;6.37;;
41661;SDS011;27351;45.992;12.666;2023-11-21T05:23:01;12.20;;;6.33;;
41661;SDS011;27351;45.992;12.666;2023-11-21T05:25:26;12.83;;;6.87;;
41661;SDS011;27351;45.992;12.666;2023-11-21T05:27:52;12.00;;;6.13;;
41661;SDS011;27351;45.992;12.666;2023-11-21T05:30:20;12.35;;;6.30;;
41661;SDS011;27351;45.992;12.666;2023-11-21T05:32:46;11.70;;;6.75;;
41661;SDS011;27351;45.992;12.666;2023-11-21T05:35:12;11.23;;;5.87;;
41661;SDS011;27351;45.992;12.666;2023-11-21T05:37:44;13.75;;;6.55;;
41661;SDS011;27351;45.992;12.666;2023-11-21T05:40:11;12.10;;;6.13;;
41661;SDS011;27351;45.992;12.666;2023-11-21T05:42:38;11.63;;;6.40;;
41661;SDS011;27351;45.992;12.666;2023-11-21T05:45:04;12.05;;;5.93;;
41661;SDS011;27351;45.992;12.666;2023-11-21T05:47:40;10.65;;;6.07;;
41661;SDS011;27351;45.992;12.666;2023-11-21T05:50:06;12.02;;;6.65;;
41661;SDS011;27351;45.992;12.666;2023-11-21T05:52:32;11.80;;;6.63;;
41661;SDS011;27351;45.992;12.666;2023-11-21T05:54:58;11.20;;;6.33;;
41661;SDS011;27351;45.992;12.666;2023-11-21T05:57:23;11.50;;;6.27;;
41661;SDS011;27351;45.992;12.666;2023-11-21T05:59:51;10.27;;;5.95;;
41661;SDS011;27351;45.992;12.666;2023-11-21T06:02:16;10.90;;;5.88;;
41661;SDS011;27351;45.992;12.666;2023-11-21T06:04:42;12.20;;;6.10;;
41661;SDS011;27351;45.992;12.666;2023-11-21T06:07:08;11.33;;;5.63;;
41661;SDS011;27351;45.992;12.666;2023-11-21T06:09:33;10.68;;;5.82;;
41661;SDS011;27351;45.992;12.666;2023-11-21T06:11:59;11.97;;;5.53;;
41661;SDS011;27351;45.992;12.666;2023-11-21T06:14:25;10.97;;;5.80;;
41661;SDS011;27351;45.992;12.666;2023-11-21T06:16:51;9.63;;;5.57;;
41661;SDS011;27351;45.992;12.666;2023-11-21T06:19:18;12.63;;;6.13;;
41661;SDS011;27351;45.992;12.666;2023-11-21T06:21:46;10.43;;;5.43;;
41661;SDS011;27351;45.992;12.666;2023-11-21T06:24:12;11.18;;;5.00;;
41661;SDS011;27351;45.992;12.666;2023-11-21T06:26:38;9.23;;;4.95;;
41661;SDS011;27351;45.992;12.666;2023-11-21T06:29:03;10.30;;;4.88;;
41661;SDS011;27351;45.992;12.666;2023-11-21T06:31:29;8.85;;;4.32;;
41661;SDS011;27351;45.992;12.666;2023-11-21T06:33:55;8.88;;;4.30;;
41661;SDS011;27351;45.992;12.666;2023-11-21T06:36:21;9.85;;;4.63;;
41661;SDS011;27351;45.992;12.666;2023-11-21T06:38:46;10.52;;;4.82;;
41661;SDS011;27351;45.992;12.666;2023-11-21T06:41:12;8.03;;;4.00;;
41661;SDS011;27351;45.992;12.666;2023-11-21T06:43:41;8.43;;;4.28;;
41661;SDS011;27351;45.992;12.666;2023-11-21T06:46:07;9.68;;;4.47;;
41661;SDS011;27351;45.992;12.666;2023-11-21T06:48:32;8.38;;;4.13;;
41661;SDS011;27351;45.992;12.666;2023-11-21T06:50:58;9.82;;;4.50;;
41661;SDS011;27351;45.992;12.666;2023-11-21T06:53:23;8.43;;;4.27;;
41661;SDS011;27351;45.992;12.666;2023-11-21T06:55:50;9.73;;;3.88;;
41661;SDS011;27351;45.992;12.666;2023-11-21T06:58:15;10.67;;;4.17;;
41661;SDS011;27351;45.992;12.666;2023-11-21T07:00:41;8.70;;;4.28;;
41661;SDS011;27351;45.992;12.666;2023-11-21T07:03:12;6.50;;;3.30;;
41661;SDS011;27351;45.992;12.666;2023-11-21T07:05:37;6.93;;;3.28;;
41661;SDS011;27351;45.992;12.666;2023-11-21T07:08:03;7.85;;;3.22;;
41661;SDS011;27351;45.992;12.666;2023-11-21T07:10:29;5.55;;;2.85;;
41661;SDS011;27351;45.992;12.666;2023-11-21T07:12:55;5.78;;;3.20;;
41661;SDS011;27351;45.992;12.666;2023-11-21T07:15:22;6.40;;;2.67;;
41661;SDS011;27351;45.992;12.666;2023-11-21T07:17:48;9.80;;;3.00;;
41661;SDS011;27351;45.992;12.666;2023-11-21T07:20:13;6.32;;;2.70;;
41661;SDS011;27351;45.992;12.666;2023-11-21T07:22:42;6.30;;;2.80;;
41661;SDS011;27351;45.992;12.666;2023-11-21T07:25:08;4.55;;;2.28;;
41661;SDS011;27351;45.992;12.666;2023-11-21T07:27:34;4.18;;;1.90;;
41661;SDS011;27351;45.992;12.666;2023-11-21T07:30:01;2.53;;;1.40;;
41661;SDS011;27351;45.992;12.666;2023-11-21T07:32:30;2.35;;;1.30;;
41661;SDS011;27351;45.992;12.666;2023-11-21T07:34:56;3.70;;;1.30;;
41661;SDS011;27351;45.992;12.666;2023-11-21T07:37:23;3.92;;;1.80;;
41661;SDS011;27351;45.992;12.666;2023-11-21T07:39:49;3.78;;;1.33;;
41661;SDS011;27351;45.992;12.666;2023-11-21T07:42:14;4.60;;;1.35;;
41661;SDS011;27351;45.992;12.666;2023-11-21T07:44:40;3.30;;;1.10;;
41661;SDS011;27351;45.992;12.666;2023-11-21T07:47:06;3.95;;;1.58;;
41661;SDS011;27351;45.992;12.666;2023-11-21T07:49:31;3.15;;;1.38;;
41661;SDS011;27351;45.992;12.666;2023-11-21T07:51:57;3.35;;;1.50;;
41661;SDS011;27351;45.992;12.666;2023-11-21T07:54:23;2.83;;;1.30;;
41661;SDS011;27351;45.992;12.666;2023-11-21T07:56:48;3.77;;;1.30;;
41661;SDS011;27351;45.992;12.666;2023-11-21T07:59:14;3.70;;;1.50;;
41661;SDS011;27351;45.992;12.666;2023-11-21T08:01:39;3.90;;;1.37;;
41661;SDS011;27351;45.992;12.666;2023-11-21T08:04:08;2.87;;;1.23;;
41661;SDS011;27351;45.992;12.666;2023-11-21T08:06:34;3.43;;;1.43;;
41661;SDS011;27351;45.992;12.666;2023-11-21T08:09:00;3.53;;;1.55;;
41661;SDS011;27351;45.992;12.666;2023-11-21T08:11:26;3.42;;;1.70;;
41661;SDS011;27351;45.992;12.666;2023-11-21T08:13:54;2.30;;;1.40;;
41661;SDS011;27351;45.992;12.666;2023-11-21T08:16:20;3.80;;;1.57;;
41661;SDS011;27351;45.992;12.666;2023-11-21T08:18:46;2.28;;;1.20;;
41661;SDS011;27351;45.992;12.666;2023-11-21T08:21:14;2.83;;;1.10;;
41661;SDS011;27351;45.992;12.666;2023-11-21T08:23:40;3.10;;;1.30;;
41661;SDS011;27351;45.992;12.666;2023-11-21T08:26:06;3.23;;;1.20;;
41661;SDS011;27351;45.992;12.666;2023-11-21T08:28:31;3.53;;;1.30;;
41661;SDS011;27351;45.992;12.666;2023-11-21T08:30:57;2.63;;;1.10;;
41661;SDS011;27351;45.992;12.666;2023-11-21T08:33:22;1.88;;;1.00;;
41661;SDS011;27351;45.992;12.666;2023-11-21T08:35:48;2.50;;;1.00;;
41661;SDS011;27351;45.992;12.666;2023-11-21T08:38:14;3.20;;;1.00;;
41661;SDS011;27351;45.992;12.666;2023-11-21T08:40:40;1.60;;;0.90;;
41661;SDS011;27351;45.992;12.666;2023-11-21T08:43:05;1.75;;;1.02;;
41661;SDS011;27351;45.992;12.666;2023-11-21T08:45:32;1.80;;;0.98;;
41661;SDS011;27351;45.992;12.666;2023-11-21T08:47:59;2.70;;;1.20;;
41661;SDS011;27351;45.992;12.666;2023-11-21T08:50:25;2.10;;;0.95;;
41661;SDS011;27351;45.992;12.666;2023-11-21T08:52:51;2.00;;;1.20;;
41661;SDS011;27351;45.992;12.666;2023-11-21T08:55:16;1.80;;;1.00;;
41661;SDS011;27351;45.992;12.666;2023-11-21T08:57:43;1.97;;;1.00;;
41661;SDS011;27351;45.992;12.666;2023-11-21T09:00:09;3.17;;;1.17;;
41661;SDS011;27351;45.992;12.666;2023-11-21T09:02:39;3.00;;;1.10;;
41661;SDS011;27351;45.992;12.666;2023-11-21T09:05:08;2.60;;;1.20;;
41661;SDS011;27351;45.992;12.666;2023-11-21T09:07:34;2.72;;;1.30;;
41661;SDS011;27351;45.992;12.666;2023-11-21T09:10:00;2.63;;;1.23;;
41661;SDS011;27351;45.992;12.666;2023-11-21T09:12:26;2.23;;;1.20;;
41661;SDS011;27351;45.992;12.666;2023-11-21T09:14:52;2.83;;;1.43;;
41661;SDS011;27351;45.992;12.666;2023-11-21T09:17:17;1.77;;;1.20;;
41661;SDS011;27351;45.992;12.666;2023-11-21T09:19:44;2.28;;;1.10;;
41661;SDS011;27351;45.992;12.666;2023-11-21T09:22:12;1.87;;;1.10;;
41661;SDS011;27351;45.992;12.666;2023-11-21T09:24:38;3.70;;;1.27;;
41661;SDS011;27351;45.992;12.666;2023-11-21T09:27:03;2.40;;;1.23;;
41661;SDS011;27351;45.992;12.666;2023-11-21T09:29:30;2.93;;;1.20;;
41661;SDS011;27351;45.992;12.666;2023-11-21T09:31:57;3.25;;;1.23;;
41661;SDS011;27351;45.992;12.666;2023-11-21T09:34:27;3.00;;;1.55;;
41661;SDS011;27351;45.992;12.666;2023-11-21T09:36:53;2.97;;;1.40;;
41661;SDS011;27351;45.992;12.666;2023-11-21T09:39:19;2.63;;;1.10;;
41661;SDS011;27351;45.992;12.666;2023-11-21T09:44:12;2.40;;;1.10;;
41661;SDS011;27351;45.992;12.666;2023-11-21T09:46:40;2.03;;;1.00;;
41661;SDS011;27351;45.992;12.666;2023-11-21T09:49:08;4.03;;;1.10;;
41661;SDS011;27351;45.992;12.666;2023-11-21T09:51:39;1.90;;;1.20;;
41661;SDS011;27351;45.992;12.666;2023-11-21T09:54:06;2.85;;;1.20;;
41661;SDS011;27351;45.992;12.666;2023-11-21T09:56:33;2.80;;;1.10;;
41661;SDS011;27351;45.992;12.666;2023-11-21T09:58:58;2.37;;;1.10;;
41661;SDS011;27351;45.992;12.666;2023-11-21T10:01:29;3.25;;;1.13;;
41661;SDS011;27351;45.992;12.666;2023-11-21T10:03:56;3.00;;;1.13;;
41661;SDS011;27351;45.992;12.666;2023-11-21T10:06:21;2.50;;;1.00;;
41661;SDS011;27351;45.992;12.666;2023-11-21T10:08:49;1.25;;;0.80;;
41661;SDS011;27351;45.992;12.666;2023-11-21T10:11:16;1.35;;;0.90;;
41661;SDS011;27351;45.992;12.666;2023-11-21T10:13:43;2.05;;;0.95;;
41661;SDS011;27351;45.992;12.666;2023-11-21T10:16:11;2.35;;;1.10;;
41661;SDS011;27351;45.992;12.666;2023-11-21T10:18:39;1.90;;;0.95;;
41661;SDS011;27351;45.992;12.666;2023-11-21T10:21:06;3.13;;;0.80;;
41661;SDS011;27351;45.992;12.666;2023-11-21T10:23:32;1.35;;;0.70;;
41661;SDS011;27351;45.992;12.666;2023-11-21T10:25:57;0.87;;;0.70;;
41661;SDS011;27351;45.992;12.666;2023-11-21T10:28:24;2.20;;;0.80;;
41661;SDS011;27351;45.992;12.666;2023-11-21T10:30:50;1.53;;;0.70;;
41661;SDS011;27351;45.992;12.666;2023-11-21T10:33:15;1.23;;;0.83;;
41661;SDS011;27351;45.992;12.666;2023-11-21T10:38:07;0.90;;;0.60;;
41661;SDS011;27351;45.992;12.666;2023-11-21T10:40:38;1.05;;;0.70;;
41661;SDS011;27351;45.992;12.666;2023-11-21T10:43:10;1.17;;;0.68;;
41661;SDS011;27351;45.992;12.666;2023-11-21T10:45:39;1.10;;;0.80;;
41661;SDS011;27351;45.992;12.666;2023-11-21T10:48:09;1.80;;;0.70;;
41661;SDS011;27351;45.992;12.666;2023-11-21T10:50:36;1.20;;;0.88;;
41661;SDS011;27351;45.992;12.666;2023-11-21T10:53:02;0.70;;;0.40;;
41661;SDS011;27351;45.992;12.666;2023-11-21T10:55:29;0.60;;;0.50;;
41661;SDS011;27351;45.992;12.666;2023-11-21T10:57:55;0.88;;;0.50;;
41661;SDS011;27351;45.992;12.666;2023-11-21T11:00:23;0.70;;;0.50;;
41661;SDS011;27351;45.992;12.666;2023-11-21T11:02:53;1.00;;;0.40;;
41661;SDS011;27351;45.992;12.666;2023-11-21T11:05:21;1.27;;;0.40;;
41661;SDS011;27351;45.992;12.666;2023-11-21T11:07:50;0.65;;;0.40;;
41661;SDS011;27351;45.992;12.666;2023-11-21T11:10:22;2.40;;;0.68;;
41661;SDS011;27351;45.992;12.666;2023-11-21T11:12:51;0.70;;;0.20;;
41661;SDS011;27351;45.992;12.666;2023-11-21T11:15:17;1.02;;;0.47;;
41661;SDS011;27351;45.992;12.666;2023-11-21T11:17:44;1.08;;;0.50;;
41661;SDS011;27351;45.992;12.666;2023-11-21T11:20:11;0.52;;;0.30;;
41661;SDS011;27351;45.992;12.666;2023-11-21T11:22:41;0.82;;;0.50;;
41661;SDS011;27351;45.992;12.666;2023-11-21T11:27:57;0.90;;;0.50;;
41661;SDS011;27351;45.992;12.666;2023-11-21T11:30:39;1.75;;;0.45;;
41661;SDS011;27351;45.992;12.666;2023-11-21T11:38:02;0.60;;;0.40;;
41661;SDS011;27351;45.992;12.666;2023-11-21T11:40:40;1.43;;;0.40;;
41661;SDS011;27351;45.992;12.666;2023-11-21T11:43:07;0.50;;;0.40;;
41661;SDS011;27351;45.992;12.666;2023-11-21T11:45:33;0.40;;;0.40;;
41661;SDS011;27351;45.992;12.666;2023-11-21T11:48:02;2.10;;;0.38;;
41661;SDS011;27351;45.992;12.666;2023-11-21T11:50:29;0.50;;;0.40;;
41661;SDS011;27351;45.992;12.666;2023-11-21T11:52:55;1.17;;;0.70;;
41661;SDS011;27351;45.992;12.666;2023-11-21T11:55:23;1.75;;;0.77;;
41661;SDS011;27351;45.992;12.666;2023-11-21T11:57:50;1.90;;;0.90;;
41661;SDS011;27351;45.992;12.666;2023-11-21T12:00:19;2.45;;;1.00;;
41661;SDS011;27351;45.992;12.666;2023-11-21T12:02:46;1.85;;;0.80;;
41661;SDS011;27351;45.992;12.666;2023-11-21T12:05:13;3.35;;;1.60;;
41661;SDS011;27351;45.992;12.666;2023-11-21T12:10:14;1.73;;;0.73;;
41661;SDS011;27351;45.992;12.666;2023-11-21T12:12:43;1.53;;;0.90;;
41661;SDS011;27351;45.992;12.666;2023-11-21T12:15:10;2.63;;;1.02;;
41661;SDS011;27351;45.992;12.666;2023-11-21T12:17:37;2.53;;;1.20;;
41661;SDS011;27351;45.992;12.666;2023-11-21T12:20:04;2.43;;;1.40;;
41661;SDS011;27351;45.992;12.666;2023-11-21T12:22:31;4.20;;;1.80;;
41661;SDS011;27351;45.992;12.666;2023-11-21T12:24:56;2.37;;;1.10;;
41661;SDS011;27351;45.992;12.666;2023-11-21T12:27:22;2.95;;;1.48;;
41661;SDS011;27351;45.992;12.666;2023-11-21T12:29:47;3.20;;;1.47;;
41661;SDS011;27351;45.992;12.666;2023-11-21T12:32:13;3.67;;;1.40;;
41661;SDS011;27351;45.992;12.666;2023-11-21T12:34:41;3.35;;;1.40;;
41661;SDS011;27351;45.992;12.666;2023-11-21T12:37:07;2.78;;;1.48;;
41661;SDS011;27351;45.992;12.666;2023-11-21T12:39:32;1.93;;;1.13;;
41661;SDS011;27351;45.992;12.666;2023-11-21T12:41:58;3.07;;;1.13;;
41661;SDS011;27351;45.992;12.666;2023-11-21T12:44:23;1.77;;;1.05;;
41661;SDS011;27351;45.992;12.666;2023-11-21T12:46:49;2.50;;;1.10;;
41661;SDS011;27351;45.992;12.666;2023-11-21T12:49:15;3.05;;;1.02;;
41661;SDS011;27351;45.992;12.666;2023-11-21T12:51:45;3.55;;;1.10;;
41661;SDS011;27351;45.992;12.666;2023-11-21T12:54:11;1.50;;;1.00;;
41661;SDS011;27351;45.992;12.666;2023-11-21T12:56:38;1.33;;;0.70;;
41661;SDS011;27351;45.992;12.666;2023-11-21T12:59:04;1.55;;;0.70;;
41661;SDS011;27351;45.992;12.666;2023-11-21T13:01:30;3.00;;;1.00;;
41661;SDS011;27351;45.992;12.666;2023-11-21T13:03:59;2.35;;;0.90;;
41661;SDS011;27351;45.992;12.666;2023-11-21T13:06:25;1.85;;;0.80;;
41661;SDS011;27351;45.992;12.666;2023-11-21T13:08:51;2.13;;;1.10;;
41661;SDS011;27351;45.992;12.666;2023-11-21T13:11:17;2.50;;;1.00;;
41661;SDS011;27351;45.992;12.666;2023-11-21T13:13:43;3.53;;;1.27;;
41661;SDS011;27351;45.992;12.666;2023-11-21T13:16:11;1.55;;;1.00;;
41661;SDS011;27351;45.992;12.666;2023-11-21T13:18:38;2.50;;;0.90;;
41661;SDS011;27351;45.992;12.666;2023-11-21T13:21:05;1.23;;;0.70;;
41661;SDS011;27351;45.992;12.666;2023-11-21T13:23:43;1.52;;;0.80;;
41661;SDS011;27351;45.992;12.666;2023-11-21T13:26:11;1.60;;;0.80;;
41661;SDS011;27351;45.992;12.666;2023-11-21T13:28:37;1.60;;;0.70;;
41661;SDS011;27351;45.992;12.666;2023-11-21T13:31:04;1.10;;;0.67;;
41661;SDS011;27351;45.992;12.666;2023-11-21T13:33:38;1.55;;;0.60;;
41661;SDS011;27351;45.992;12.666;2023-11-21T13:36:04;2.25;;;0.90;;
41661;SDS011;27351;45.992;12.666;2023-11-21T13:38:33;1.20;;;0.70;;
41661;SDS011;27351;45.992;12.666;2023-11-21T13:41:00;3.00;;;0.80;;
41661;SDS011;27351;45.992;12.666;2023-11-21T13:43:26;2.80;;;0.73;;
41661;SDS011;27351;45.992;12.666;2023-11-21T13:45:54;2.10;;;1.00;;
41661;SDS011;27351;45.992;12.666;2023-11-21T13:48:29;1.63;;;0.80;;
41661;SDS011;27351;45.992;12.666;2023-11-21T13:51:03;2.00;;;1.00;;
41661;SDS011;27351;45.992;12.666;2023-11-21T13:53:48;1.48;;;0.90;;
41661;SDS011;27351;45.992;12.666;2023-11-21T13:56:16;1.80;;;0.90;;
41661;SDS011;27351;45.992;12.666;2023-11-21T13:58:45;2.58;;;0.90;;
41661;SDS011;27351;45.992;12.666;2023-11-21T14:01:20;2.05;;;0.93;;
41661;SDS011;27351;45.992;12.666;2023-11-21T14:03:58;2.22;;;0.80;;
41661;SDS011;27351;45.992;12.666;2023-11-21T14:06:42;1.85;;;0.93;;
41661;SDS011;27351;45.992;12.666;2023-11-21T14:09:17;2.45;;;0.80;;
41661;SDS011;27351;45.992;12.666;2023-11-21T14:11:57;1.60;;;0.80;;
41661;SDS011;27351;45.992;12.666;2023-11-21T14:14:26;2.90;;;0.80;;
41661;SDS011;27351;45.992;12.666;2023-11-21T14:16:53;1.88;;;0.85;;
41661;SDS011;27351;45.992;12.666;2023-11-21T14:19:18;2.00;;;0.90;;
41661;SDS011;27351;45.992;12.666;2023-11-21T14:21:44;2.03;;;0.80;;
41661;SDS011;27351;45.992;12.666;2023-11-21T14:24:11;2.80;;;0.90;;
41661;SDS011;27351;45.992;12.666;2023-11-21T14:26:41;1.70;;;0.70;;
41661;SDS011;27351;45.992;12.666;2023-11-21T14:29:07;1.63;;;0.90;;
41661;SDS011;27351;45.992;12.666;2023-11-21T14:31:33;2.90;;;1.10;;
41661;SDS011;27351;45.992;12.666;2023-11-21T14:33:59;3.00;;;0.90;;
41661;SDS011;27351;45.992;12.666;2023-11-21T14:36:28;2.00;;;0.90;;
41661;SDS011;27351;45.992;12.666;2023-11-21T14:38:54;1.98;;;0.80;;
41661;SDS011;27351;45.992;12.666;2023-11-21T14:41:19;2.80;;;0.82;;
41661;SDS011;27351;45.992;12.666;2023-11-21T14:43:45;2.97;;;0.90;;